Terminal Aerodrome Forecast
Issued by NWS

Home | Current Version | Previous Version | Text Only | Print | Product List | Glossary Off
Versions: 1 2 3 4 5 6 7 8 9 10 11 12 13 14 15

000
FTUS43 KIWX 272338
TAFSBN
TAF
KSBN 272338Z 2800/2824 12013G18KT P6SM OVC040
     FM280300 09015G22KT 5SM -SHRA OVC025
     FM280700 08016G22KT 4SM -RA VCTS OVC025CB
      TEMPO 2807/2809 2SM -TSRA BKN015CB
     FM281200 07014G20KT 4SM -RA OVC015
     FM281700 08010KT P6SM OVC015=

USA.gov is the U.S. government's official web portal to all federal, state and local government web resources and services.